sensor_id;sensor_type;location;lat;lon;timestamp;P1;durP1;ratioP1;P2;durP2;ratioP2
14381;SDS011;7275;50.328;8.720;2023-06-19T00:02:18;5.82;;;5.32;;
14381;SDS011;7275;50.328;8.720;2023-06-19T00:04:46;5.95;;;5.45;;
14381;SDS011;7275;50.328;8.720;2023-06-19T00:07:13;5.60;;;5.07;;
14381;SDS011;7275;50.328;8.720;2023-06-19T00:09:41;5.30;;;4.85;;
14381;SDS011;7275;50.328;8.720;2023-06-19T00:12:10;6.03;;;5.53;;
14381;SDS011;7275;50.328;8.720;2023-06-19T00:14:37;5.90;;;5.30;;
14381;SDS011;7275;50.328;8.720;2023-06-19T00:17:05;5.80;;;5.20;;
14381;SDS011;7275;50.328;8.720;2023-06-19T00:19:33;5.17;;;4.77;;
14381;SDS011;7275;50.328;8.720;2023-06-19T00:22:02;5.63;;;5.13;;
14381;SDS011;7275;50.328;8.720;2023-06-19T00:24:30;5.38;;;4.88;;
14381;SDS011;7275;50.328;8.720;2023-06-19T00:26:58;5.20;;;4.80;;
14381;SDS011;7275;50.328;8.720;2023-06-19T00:29:30;5.63;;;5.13;;
14381;SDS011;7275;50.328;8.720;2023-06-19T00:31:58;4.63;;;4.22;;
14381;SDS011;7275;50.328;8.720;2023-06-19T00:34:28;5.47;;;4.90;;
14381;SDS011;7275;50.328;8.720;2023-06-19T00:36:56;5.43;;;4.93;;
14381;SDS011;7275;50.328;8.720;2023-06-19T00:39:24;5.03;;;4.63;;
14381;SDS011;7275;50.328;8.720;2023-06-19T00:41:53;5.17;;;4.77;;
14381;SDS011;7275;50.328;8.720;2023-06-19T00:44:21;5.50;;;5.00;;
14381;SDS011;7275;50.328;8.720;2023-06-19T00:46:51;5.23;;;4.83;;
14381;SDS011;7275;50.328;8.720;2023-06-19T00:49:26;5.13;;;4.73;;
14381;SDS011;7275;50.328;8.720;2023-06-19T00:51:55;5.07;;;4.67;;
14381;SDS011;7275;50.328;8.720;2023-06-19T00:54:23;5.17;;;4.77;;
14381;SDS011;7275;50.328;8.720;2023-06-19T00:56:51;4.93;;;4.40;;
14381;SDS011;7275;50.328;8.720;2023-06-19T00:59:20;5.20;;;4.80;;
14381;SDS011;7275;50.328;8.720;2023-06-19T01:01:48;5.10;;;4.70;;
14381;SDS011;7275;50.328;8.720;2023-06-19T01:04:17;5.70;;;5.20;;
14381;SDS011;7275;50.328;8.720;2023-06-19T01:06:46;5.67;;;5.17;;
14381;SDS011;7275;50.328;8.720;2023-06-19T01:09:25;5.93;;;5.40;;
14381;SDS011;7275;50.328;8.720;2023-06-19T01:11:58;5.13;;;4.73;;
14381;SDS011;7275;50.328;8.720;2023-06-19T01:14:33;5.13;;;4.73;;
14381;SDS011;7275;50.328;8.720;2023-06-19T01:17:06;4.73;;;4.33;;
14381;SDS011;7275;50.328;8.720;2023-06-19T01:19:35;4.90;;;4.40;;
14381;SDS011;7275;50.328;8.720;2023-06-19T01:22:05;4.70;;;4.30;;
14381;SDS011;7275;50.328;8.720;2023-06-19T01:24:33;5.93;;;5.00;;
14381;SDS011;7275;50.328;8.720;2023-06-19T01:27:00;5.00;;;4.60;;
14381;SDS011;7275;50.328;8.720;2023-06-19T01:29:29;5.17;;;4.77;;
14381;SDS011;7275;50.328;8.720;2023-06-19T01:31:57;5.10;;;4.70;;
14381;SDS011;7275;50.328;8.720;2023-06-19T01:34:29;4.87;;;4.47;;
14381;SDS011;7275;50.328;8.720;2023-06-19T01:36:58;4.50;;;4.20;;
14381;SDS011;7275;50.328;8.720;2023-06-19T01:39:27;4.67;;;4.30;;
14381;SDS011;7275;50.328;8.720;2023-06-19T01:41:55;5.37;;;4.93;;
14381;SDS011;7275;50.328;8.720;2023-06-19T01:44:24;5.20;;;4.80;;
14381;SDS011;7275;50.328;8.720;2023-06-19T01:46:52;4.67;;;4.27;;
14381;SDS011;7275;50.328;8.720;2023-06-19T01:49:20;4.87;;;4.47;;
14381;SDS011;7275;50.328;8.720;2023-06-19T01:51:47;5.10;;;4.70;;
14381;SDS011;7275;50.328;8.720;2023-06-19T01:54:16;5.27;;;4.87;;
14381;SDS011;7275;50.328;8.720;2023-06-19T01:56:45;4.90;;;4.50;;
14381;SDS011;7275;50.328;8.720;2023-06-19T01:59:13;5.33;;;4.93;;
14381;SDS011;7275;50.328;8.720;2023-06-19T02:01:41;5.07;;;4.37;;
14381;SDS011;7275;50.328;8.720;2023-06-19T02:04:08;5.30;;;4.80;;
14381;SDS011;7275;50.328;8.720;2023-06-19T02:06:36;4.87;;;4.47;;
14381;SDS011;7275;50.328;8.720;2023-06-19T02:09:03;5.87;;;4.77;;
14381;SDS011;7275;50.328;8.720;2023-06-19T02:11:31;5.03;;;4.63;;
14381;SDS011;7275;50.328;8.720;2023-06-19T02:14:00;5.27;;;4.77;;
14381;SDS011;7275;50.328;8.720;2023-06-19T02:16:28;5.30;;;4.87;;
14381;SDS011;7275;50.328;8.720;2023-06-19T02:18:56;5.03;;;4.63;;
14381;SDS011;7275;50.328;8.720;2023-06-19T02:21:24;5.30;;;4.80;;
14381;SDS011;7275;50.328;8.720;2023-06-19T02:23:51;5.33;;;4.83;;
14381;SDS011;7275;50.328;8.720;2023-06-19T02:26:19;5.00;;;4.60;;
14381;SDS011;7275;50.328;8.720;2023-06-19T02:28:47;5.03;;;4.63;;
14381;SDS011;7275;50.328;8.720;2023-06-19T02:31:16;5.20;;;4.70;;
14381;SDS011;7275;50.328;8.720;2023-06-19T02:33:44;4.53;;;4.13;;
14381;SDS011;7275;50.328;8.720;2023-06-19T02:36:11;5.20;;;4.63;;
14381;SDS011;7275;50.328;8.720;2023-06-19T02:38:39;4.97;;;4.50;;
14381;SDS011;7275;50.328;8.720;2023-06-19T02:41:09;4.97;;;4.57;;
14381;SDS011;7275;50.328;8.720;2023-06-19T02:43:36;5.00;;;4.57;;
14381;SDS011;7275;50.328;8.720;2023-06-19T02:46:04;4.90;;;4.50;;
14381;SDS011;7275;50.328;8.720;2023-06-19T02:48:33;4.67;;;4.27;;
14381;SDS011;7275;50.328;8.720;2023-06-19T02:51:00;4.97;;;4.57;;
14381;SDS011;7275;50.328;8.720;2023-06-19T02:53:28;4.53;;;4.13;;
14381;SDS011;7275;50.328;8.720;2023-06-19T02:55:55;4.70;;;4.30;;
14381;SDS011;7275;50.328;8.720;2023-06-19T02:58:23;4.90;;;4.50;;
14381;SDS011;7275;50.328;8.720;2023-06-19T03:00:51;5.47;;;5.07;;
14381;SDS011;7275;50.328;8.720;2023-06-19T03:03:19;5.10;;;4.70;;
14381;SDS011;7275;50.328;8.720;2023-06-19T03:05:48;5.37;;;4.80;;
14381;SDS011;7275;50.328;8.720;2023-06-19T03:08:15;5.33;;;4.90;;
14381;SDS011;7275;50.328;8.720;2023-06-19T03:10:43;5.47;;;4.97;;
14381;SDS011;7275;50.328;8.720;2023-06-19T03:13:11;5.43;;;4.87;;
14381;SDS011;7275;50.328;8.720;2023-06-19T03:15:39;5.57;;;5.07;;
14381;SDS011;7275;50.328;8.720;2023-06-19T03:18:07;5.40;;;4.90;;
14381;SDS011;7275;50.328;8.720;2023-06-19T03:20:36;5.17;;;4.77;;
14381;SDS011;7275;50.328;8.720;2023-06-19T03:23:05;5.80;;;4.60;;
14381;SDS011;7275;50.328;8.720;2023-06-19T03:25:33;5.03;;;4.57;;
14381;SDS011;7275;50.328;8.720;2023-06-19T03:28:01;5.30;;;4.50;;
14381;SDS011;7275;50.328;8.720;2023-06-19T03:30:29;4.97;;;4.57;;
14381;SDS011;7275;50.328;8.720;2023-06-19T03:32:57;5.27;;;4.87;;
14381;SDS011;7275;50.328;8.720;2023-06-19T03:35:24;5.20;;;4.80;;
14381;SDS011;7275;50.328;8.720;2023-06-19T03:37:52;6.10;;;5.00;;
14381;SDS011;7275;50.328;8.720;2023-06-19T03:40:21;5.33;;;4.83;;
14381;SDS011;7275;50.328;8.720;2023-06-19T03:42:49;5.90;;;5.40;;
14381;SDS011;7275;50.328;8.720;2023-06-19T03:45:16;6.03;;;5.37;;
14381;SDS011;7275;50.328;8.720;2023-06-19T03:47:44;6.30;;;5.23;;
14381;SDS011;7275;50.328;8.720;2023-06-19T03:50:12;5.27;;;4.87;;
14381;SDS011;7275;50.328;8.720;2023-06-19T03:52:56;5.93;;;5.33;;
14381;SDS011;7275;50.328;8.720;2023-06-19T03:55:25;5.67;;;5.27;;
14381;SDS011;7275;50.328;8.720;2023-06-19T03:57:52;5.83;;;5.30;;
14381;SDS011;7275;50.328;8.720;2023-06-19T04:00:20;7.23;;;4.87;;
14381;SDS011;7275;50.328;8.720;2023-06-19T04:02:49;5.50;;;5.00;;
14381;SDS011;7275;50.328;8.720;2023-06-19T04:05:16;5.33;;;4.83;;
14381;SDS011;7275;50.328;8.720;2023-06-19T04:07:45;5.00;;;4.53;;
14381;SDS011;7275;50.328;8.720;2023-06-19T04:10:13;5.87;;;5.37;;
14381;SDS011;7275;50.328;8.720;2023-06-19T04:12:42;5.83;;;5.30;;
14381;SDS011;7275;50.328;8.720;2023-06-19T04:15:11;7.67;;;5.20;;
14381;SDS011;7275;50.328;8.720;2023-06-19T04:17:39;5.50;;;4.97;;
14381;SDS011;7275;50.328;8.720;2023-06-19T04:20:07;5.97;;;5.37;;
14381;SDS011;7275;50.328;8.720;2023-06-19T04:22:38;5.50;;;5.00;;
14381;SDS011;7275;50.328;8.720;2023-06-19T04:25:06;6.17;;;5.57;;
14381;SDS011;7275;50.328;8.720;2023-06-19T04:27:34;5.47;;;4.97;;
14381;SDS011;7275;50.328;8.720;2023-06-19T04:30:04;5.47;;;4.93;;
14381;SDS011;7275;50.328;8.720;2023-06-19T04:32:33;5.70;;;5.20;;
14381;SDS011;7275;50.328;8.720;2023-06-19T04:35:02;6.47;;;5.18;;
14381;SDS011;7275;50.328;8.720;2023-06-19T04:37:30;5.47;;;4.95;;
14381;SDS011;7275;50.328;8.720;2023-06-19T04:39:58;5.57;;;5.07;;
14381;SDS011;7275;50.328;8.720;2023-06-19T04:42:25;5.73;;;5.23;;
14381;SDS011;7275;50.328;8.720;2023-06-19T04:44:54;5.70;;;5.07;;
14381;SDS011;7275;50.328;8.720;2023-06-19T04:47:23;5.57;;;5.17;;
14381;SDS011;7275;50.328;8.720;2023-06-19T04:50:01;6.07;;;5.40;;
14381;SDS011;7275;50.328;8.720;2023-06-19T04:52:29;5.43;;;4.93;;
14381;SDS011;7275;50.328;8.720;2023-06-19T04:54:59;5.70;;;5.20;;
14381;SDS011;7275;50.328;8.720;2023-06-19T04:57:26;4.77;;;4.37;;
14381;SDS011;7275;50.328;8.720;2023-06-19T04:59:54;4.50;;;4.10;;
14381;SDS011;7275;50.328;8.720;2023-06-19T05:02:21;4.30;;;3.90;;
14381;SDS011;7275;50.328;8.720;2023-06-19T05:04:51;4.30;;;4.00;;
14381;SDS011;7275;50.328;8.720;2023-06-19T05:07:19;4.30;;;3.90;;
14381;SDS011;7275;50.328;8.720;2023-06-19T05:09:46;4.25;;;3.95;;
14381;SDS011;7275;50.328;8.720;2023-06-19T05:12:14;4.68;;;4.28;;
14381;SDS011;7275;50.328;8.720;2023-06-19T05:14:41;4.55;;;4.15;;
14381;SDS011;7275;50.328;8.720;2023-06-19T05:17:09;5.97;;;4.05;;
14381;SDS011;7275;50.328;8.720;2023-06-19T05:19:36;4.50;;;4.10;;
14381;SDS011;7275;50.328;8.720;2023-06-19T05:22:05;6.05;;;4.00;;
14381;SDS011;7275;50.328;8.720;2023-06-19T05:24:33;4.50;;;4.10;;
14381;SDS011;7275;50.328;8.720;2023-06-19T05:27:01;4.35;;;4.05;;
14381;SDS011;7275;50.328;8.720;2023-06-19T05:29:29;4.60;;;4.20;;
14381;SDS011;7275;50.328;8.720;2023-06-19T05:31:57;6.95;;;3.88;;
14381;SDS011;7275;50.328;8.720;2023-06-19T05:34:25;4.20;;;3.90;;
14381;SDS011;7275;50.328;8.720;2023-06-19T05:36:53;4.95;;;4.40;;
14381;SDS011;7275;50.328;8.720;2023-06-19T05:39:22;4.00;;;3.67;;
14381;SDS011;7275;50.328;8.720;2023-06-19T05:41:49;4.53;;;4.13;;
14381;SDS011;7275;50.328;8.720;2023-06-19T05:44:17;4.15;;;3.78;;
14381;SDS011;7275;50.328;8.720;2023-06-19T05:46:45;4.10;;;3.80;;
14381;SDS011;7275;50.328;8.720;2023-06-19T05:49:12;4.78;;;4.20;;
14381;SDS011;7275;50.328;8.720;2023-06-19T05:51:40;4.20;;;3.90;;
14381;SDS011;7275;50.328;8.720;2023-06-19T05:54:08;4.50;;;4.10;;
14381;SDS011;7275;50.328;8.720;2023-06-19T05:56:37;4.85;;;4.35;;
14381;SDS011;7275;50.328;8.720;2023-06-19T05:59:04;4.60;;;4.20;;
14381;SDS011;7275;50.328;8.720;2023-06-19T06:01:32;4.28;;;3.97;;
14381;SDS011;7275;50.328;8.720;2023-06-19T06:04:00;4.60;;;4.05;;
14381;SDS011;7275;50.328;8.720;2023-06-19T06:06:29;4.72;;;4.32;;
14381;SDS011;7275;50.328;8.720;2023-06-19T06:08:57;4.70;;;4.30;;
14381;SDS011;7275;50.328;8.720;2023-06-19T06:11:25;4.78;;;4.38;;
14381;SDS011;7275;50.328;8.720;2023-06-19T06:13:54;4.60;;;4.20;;
14381;SDS011;7275;50.328;8.720;2023-06-19T06:16:24;4.30;;;3.85;;
14381;SDS011;7275;50.328;8.720;2023-06-19T06:18:52;5.00;;;4.50;;
14381;SDS011;7275;50.328;8.720;2023-06-19T06:21:20;4.70;;;4.18;;
14381;SDS011;7275;50.328;8.720;2023-06-19T06:23:47;4.38;;;4.07;;
14381;SDS011;7275;50.328;8.720;2023-06-19T06:26:18;4.63;;;4.20;;
14381;SDS011;7275;50.328;8.720;2023-06-19T06:28:46;4.22;;;3.83;;
14381;SDS011;7275;50.328;8.720;2023-06-19T06:31:15;4.25;;;3.90;;
14381;SDS011;7275;50.328;8.720;2023-06-19T06:33:43;4.47;;;4.07;;
14381;SDS011;7275;50.328;8.720;2023-06-19T06:36:14;4.85;;;3.67;;
14381;SDS011;7275;50.328;8.720;2023-06-19T06:39:12;4.60;;;4.20;;
14381;SDS011;7275;50.328;8.720;2023-06-19T06:41:39;3.90;;;3.60;;
14381;SDS011;7275;50.328;8.720;2023-06-19T06:44:07;4.18;;;3.80;;
14381;SDS011;7275;50.328;8.720;2023-06-19T06:46:36;3.58;;;3.28;;
14381;SDS011;7275;50.328;8.720;2023-06-19T06:49:03;2.53;;;2.33;;
14381;SDS011;7275;50.328;8.720;2023-06-19T06:51:31;2.47;;;2.28;;
14381;SDS011;7275;50.328;8.720;2023-06-19T06:53:58;2.00;;;1.90;;
14381;SDS011;7275;50.328;8.720;2023-06-19T06:56:26;2.72;;;2.38;;
14381;SDS011;7275;50.328;8.720;2023-06-19T06:58:54;2.80;;;2.47;;
14381;SDS011;7275;50.328;8.720;2023-06-19T07:01:21;2.40;;;2.20;;
14381;SDS011;7275;50.328;8.720;2023-06-19T07:03:50;2.15;;;2.00;;
14381;SDS011;7275;50.328;8.720;2023-06-19T07:06:20;2.20;;;2.00;;
14381;SDS011;7275;50.328;8.720;2023-06-19T07:08:48;2.17;;;2.08;;
14381;SDS011;7275;50.328;8.720;2023-06-19T07:11:15;2.20;;;2.00;;
14381;SDS011;7275;50.328;8.720;2023-06-19T07:13:43;2.15;;;1.98;;
14381;SDS011;7275;50.328;8.720;2023-06-19T07:16:11;2.15;;;2.05;;
14381;SDS011;7275;50.328;8.720;2023-06-19T07:18:38;1.92;;;1.83;;
14381;SDS011;7275;50.328;8.720;2023-06-19T07:21:10;1.92;;;1.83;;
14381;SDS011;7275;50.328;8.720;2023-06-19T07:23:39;2.13;;;1.98;;
14381;SDS011;7275;50.328;8.720;2023-06-19T07:26:08;2.33;;;2.13;;
14381;SDS011;7275;50.328;8.720;2023-06-19T07:28:36;2.10;;;1.90;;
14381;SDS011;7275;50.328;8.720;2023-06-19T07:31:04;1.88;;;1.77;;
14381;SDS011;7275;50.328;8.720;2023-06-19T07:33:31;2.05;;;1.95;;
14381;SDS011;7275;50.328;8.720;2023-06-19T07:35:59;2.20;;;2.00;;
14381;SDS011;7275;50.328;8.720;2023-06-19T07:38:30;2.20;;;2.00;;
14381;SDS011;7275;50.328;8.720;2023-06-19T07:40:57;2.40;;;2.10;;
14381;SDS011;7275;50.328;8.720;2023-06-19T07:43:25;2.00;;;1.90;;
14381;SDS011;7275;50.328;8.720;2023-06-19T07:45:53;2.33;;;2.10;;
14381;SDS011;7275;50.328;8.720;2023-06-19T07:48:20;2.55;;;2.35;;
14381;SDS011;7275;50.328;8.720;2023-06-19T07:50:52;2.33;;;2.03;;
14381;SDS011;7275;50.328;8.720;2023-06-19T07:53:20;2.17;;;2.03;;
14381;SDS011;7275;50.328;8.720;2023-06-19T07:55:49;1.92;;;1.83;;
14381;SDS011;7275;50.328;8.720;2023-06-19T07:58:16;2.65;;;2.38;;
14381;SDS011;7275;50.328;8.720;2023-06-19T08:00:44;3.13;;;2.17;;
14381;SDS011;7275;50.328;8.720;2023-06-19T08:03:12;2.40;;;2.20;;
14381;SDS011;7275;50.328;8.720;2023-06-19T08:05:40;2.70;;;2.50;;
14381;SDS011;7275;50.328;8.720;2023-06-19T08:08:07;2.13;;;2.03;;
14381;SDS011;7275;50.328;8.720;2023-06-19T08:10:35;2.40;;;2.20;;
14381;SDS011;7275;50.328;8.720;2023-06-19T08:13:04;2.63;;;2.38;;
14381;SDS011;7275;50.328;8.720;2023-06-19T08:15:31;2.72;;;2.50;;
14381;SDS011;7275;50.328;8.720;2023-06-19T08:17:59;3.03;;;2.33;;
14381;SDS011;7275;50.328;8.720;2023-06-19T08:20:26;2.70;;;2.50;;
14381;SDS011;7275;50.328;8.720;2023-06-19T08:22:54;2.40;;;2.20;;
14381;SDS011;7275;50.328;8.720;2023-06-19T08:25:23;2.55;;;2.35;;
14381;SDS011;7275;50.328;8.720;2023-06-19T08:27:50;2.88;;;2.15;;
14381;SDS011;7275;50.328;8.720;2023-06-19T08:30:19;2.40;;;2.20;;
14381;SDS011;7275;50.328;8.720;2023-06-19T08:32:47;2.55;;;2.35;;
14381;SDS011;7275;50.328;8.720;2023-06-19T08:35:15;2.58;;;2.38;;
14381;SDS011;7275;50.328;8.720;2023-06-19T08:37:43;2.80;;;2.60;;
14381;SDS011;7275;50.328;8.720;2023-06-19T08:40:11;2.47;;;2.28;;
14381;SDS011;7275;50.328;8.720;2023-06-19T08:42:39;2.45;;;2.25;;
14381;SDS011;7275;50.328;8.720;2023-06-19T08:45:09;2.58;;;2.38;;
14381;SDS011;7275;50.328;8.720;2023-06-19T08:47:38;2.47;;;2.28;;
14381;SDS011;7275;50.328;8.720;2023-06-19T08:50:06;2.25;;;2.15;;
14381;SDS011;7275;50.328;8.720;2023-06-19T08:52:34;2.70;;;2.50;;
14381;SDS011;7275;50.328;8.720;2023-06-19T08:55:02;2.60;;;2.40;;
14381;SDS011;7275;50.328;8.720;2023-06-19T08:57:33;2.40;;;2.20;;
14381;SDS011;7275;50.328;8.720;2023-06-19T09:00:02;2.70;;;2.50;;
14381;SDS011;7275;50.328;8.720;2023-06-19T09:02:43;2.90;;;2.70;;
14381;SDS011;7275;50.328;8.720;2023-06-19T09:05:30;2.60;;;2.40;;
14381;SDS011;7275;50.328;8.720;2023-06-19T09:07:58;2.67;;;2.47;;
14381;SDS011;7275;50.328;8.720;2023-06-19T09:10:27;2.90;;;2.60;;
14381;SDS011;7275;50.328;8.720;2023-06-19T09:12:58;2.65;;;2.45;;
14381;SDS011;7275;50.328;8.720;2023-06-19T09:15:27;2.85;;;2.60;;
14381;SDS011;7275;50.328;8.720;2023-06-19T09:18:01;2.97;;;2.78;;
14381;SDS011;7275;50.328;8.720;2023-06-19T09:20:30;3.65;;;2.85;;
14381;SDS011;7275;50.328;8.720;2023-06-19T09:22:58;3.30;;;2.80;;
14381;SDS011;7275;50.328;8.720;2023-06-19T09:25:26;2.88;;;2.67;;
14381;SDS011;7275;50.328;8.720;2023-06-19T09:27:54;2.70;;;2.50;;
14381;SDS011;7275;50.328;8.720;2023-06-19T09:30:22;3.00;;;2.80;;
14381;SDS011;7275;50.328;8.720;2023-06-19T09:32:50;2.72;;;2.53;;
14381;SDS011;7275;50.328;8.720;2023-06-19T09:35:19;3.08;;;2.80;;
14381;SDS011;7275;50.328;8.720;2023-06-19T09:37:47;3.22;;;2.90;;
14381;SDS011;7275;50.328;8.720;2023-06-19T09:40:17;3.95;;;2.75;;
14381;SDS011;7275;50.328;8.720;2023-06-19T09:42:45;3.22;;;2.92;;
14381;SDS011;7275;50.328;8.720;2023-06-19T09:45:15;3.08;;;2.88;;
14381;SDS011;7275;50.328;8.720;2023-06-19T09:47:48;2.88;;;2.67;;
14381;SDS011;7275;50.328;8.720;2023-06-19T09:50:22;3.50;;;2.75;;
14381;SDS011;7275;50.328;8.720;2023-06-19T09:52:54;2.90;;;2.70;;
14381;SDS011;7275;50.328;8.720;2023-06-19T09:55:22;3.13;;;2.90;;
14381;SDS011;7275;50.328;8.720;2023-06-19T09:57:55;3.03;;;2.83;;
14381;SDS011;7275;50.328;8.720;2023-06-19T10:00:22;3.40;;;3.00;;
14381;SDS011;7275;50.328;8.720;2023-06-19T10:02:57;2.95;;;2.75;;
14381;SDS011;7275;50.328;8.720;2023-06-19T10:05:31;3.15;;;2.78;;
14381;SDS011;7275;50.328;8.720;2023-06-19T10:07:59;2.70;;;2.50;;
14381;SDS011;7275;50.328;8.720;2023-06-19T10:10:27;3.25;;;2.78;;
14381;SDS011;7275;50.328;8.720;2023-06-19T10:13:00;3.15;;;2.95;;
14381;SDS011;7275;50.328;8.720;2023-06-19T10:15:40;3.17;;;2.92;;
14381;SDS011;7275;50.328;8.720;2023-06-19T10:18:12;3.00;;;2.80;;
14381;SDS011;7275;50.328;8.720;2023-06-19T10:20:43;3.63;;;3.00;;
14381;SDS011;7275;50.328;8.720;2023-06-19T10:23:14;3.55;;;3.25;;
14381;SDS011;7275;50.328;8.720;2023-06-19T10:25:46;3.55;;;3.25;;
14381;SDS011;7275;50.328;8.720;2023-06-19T10:28:18;4.05;;;3.20;;
14381;SDS011;7275;50.328;8.720;2023-06-19T10:30:51;4.10;;;3.30;;
14381;SDS011;7275;50.328;8.720;2023-06-19T10:33:21;5.07;;;3.17;;
14381;SDS011;7275;50.328;8.720;2023-06-19T10:35:53;3.08;;;2.88;;
14381;SDS011;7275;50.328;8.720;2023-06-19T10:38:21;4.00;;;3.10;;
14381;SDS011;7275;50.328;8.720;2023-06-19T10:40:48;3.33;;;3.13;;
14381;SDS011;7275;50.328;8.720;2023-06-19T10:43:19;3.40;;;3.10;;
14381;SDS011;7275;50.328;8.720;2023-06-19T10:45:49;3.10;;;2.90;;
14381;SDS011;7275;50.328;8.720;2023-06-19T10:48:20;3.28;;;2.97;;
14381;SDS011;7275;50.328;8.720;2023-06-19T10:50:48;3.15;;;2.72;;
14381;SDS011;7275;50.328;8.720;2023-06-19T10:53:24;3.72;;;2.97;;
14381;SDS011;7275;50.328;8.720;2023-06-19T10:55:55;3.47;;;2.97;;
14381;SDS011;7275;50.328;8.720;2023-06-19T10:58:23;3.00;;;2.80;;
14381;SDS011;7275;50.328;8.720;2023-06-19T11:00:51;3.10;;;2.90;;
14381;SDS011;7275;50.328;8.720;2023-06-19T11:03:18;3.00;;;2.80;;
14381;SDS011;7275;50.328;8.720;2023-06-19T11:05:47;4.00;;;2.85;;
14381;SDS011;7275;50.328;8.720;2023-06-19T11:08:17;3.25;;;3.00;;
14381;SDS011;7275;50.328;8.720;2023-06-19T11:10:46;3.50;;;2.78;;
14381;SDS011;7275;50.328;8.720;2023-06-19T11:13:15;3.30;;;3.00;;
14381;SDS011;7275;50.328;8.720;2023-06-19T11:15:44;3.20;;;2.90;;
14381;SDS011;7275;50.328;8.720;2023-06-19T11:18:14;3.08;;;2.88;;
14381;SDS011;7275;50.328;8.720;2023-06-19T11:20:43;3.15;;;2.85;;
14381;SDS011;7275;50.328;8.720;2023-06-19T11:23:12;4.18;;;2.55;;
14381;SDS011;7275;50.328;8.720;2023-06-19T11:25:40;2.80;;;2.60;;
14381;SDS011;7275;50.328;8.720;2023-06-19T11:28:14;3.08;;;2.88;;
14381;SDS011;7275;50.328;8.720;2023-06-19T11:30:44;2.80;;;2.60;;
14381;SDS011;7275;50.328;8.720;2023-06-19T11:33:17;3.20;;;2.90;;
14381;SDS011;7275;50.328;8.720;2023-06-19T11:35:48;3.00;;;2.80;;
14381;SDS011;7275;50.328;8.720;2023-06-19T11:38:17;3.10;;;2.88;;
14381;SDS011;7275;50.328;8.720;2023-06-19T11:40:46;3.17;;;2.97;;
14381;SDS011;7275;50.328;8.720;2023-06-19T11:43:24;3.20;;;2.90;;
14381;SDS011;7275;50.328;8.720;2023-06-19T11:45:52;3.00;;;2.80;;
14381;SDS011;7275;50.328;8.720;2023-06-19T11:48:23;3.08;;;2.88;;
14381;SDS011;7275;50.328;8.720;2023-06-19T11:50:52;3.25;;;2.67;;
14381;SDS011;7275;50.328;8.720;2023-06-19T11:53:20;3.63;;;3.00;;
14381;SDS011;7275;50.328;8.720;2023-06-19T11:55:48;3.10;;;2.90;;
14381;SDS011;7275;50.328;8.720;2023-06-19T11:58:16;3.40;;;3.10;;
14381;SDS011;7275;50.328;8.720;2023-06-19T12:00:48;3.00;;;2.80;;
14381;SDS011;7275;50.328;8.720;2023-06-19T12:03:16;3.47;;;3.00;;
14381;SDS011;7275;50.328;8.720;2023-06-19T12:05:44;3.20;;;2.88;;
14381;SDS011;7275;50.328;8.720;2023-06-19T12:08:11;6.03;;;3.30;;
14381;SDS011;7275;50.328;8.720;2023-06-19T12:10:39;5.03;;;2.88;;
14381;SDS011;7275;50.328;8.720;2023-06-19T12:13:07;3.00;;;2.80;;
14381;SDS011;7275;50.328;8.720;2023-06-19T12:15:35;4.70;;;2.65;;
14381;SDS011;7275;50.328;8.720;2023-06-19T12:18:04;3.13;;;2.92;;
14381;SDS011;7275;50.328;8.720;2023-06-19T12:20:33;3.25;;;2.95;;
14381;SDS011;7275;50.328;8.720;2023-06-19T12:23:01;3.03;;;2.83;;
14381;SDS011;7275;50.328;8.720;2023-06-19T12:25:29;3.08;;;2.80;;
14381;SDS011;7275;50.328;8.720;2023-06-19T12:27:57;3.10;;;2.85;;
14381;SDS011;7275;50.328;8.720;2023-06-19T12:30:25;2.75;;;2.55;;
14381;SDS011;7275;50.328;8.720;2023-06-19T12:32:53;3.08;;;2.78;;
14381;SDS011;7275;50.328;8.720;2023-06-19T12:35:21;2.67;;;2.47;;
14381;SDS011;7275;50.328;8.720;2023-06-19T12:37:49;3.25;;;2.90;;
14381;SDS011;7275;50.328;8.720;2023-06-19T12:40:17;4.35;;;2.80;;
14381;SDS011;7275;50.328;8.720;2023-06-19T12:42:44;3.78;;;2.80;;
14381;SDS011;7275;50.328;8.720;2023-06-19T12:45:12;3.20;;;2.90;;
14381;SDS011;7275;50.328;8.720;2023-06-19T12:47:40;3.00;;;2.80;;
14381;SDS011;7275;50.328;8.720;2023-06-19T12:50:08;2.80;;;2.60;;
14381;SDS011;7275;50.328;8.720;2023-06-19T12:52:39;2.88;;;2.50;;
14381;SDS011;7275;50.328;8.720;2023-06-19T12:55:06;4.35;;;2.78;;
14381;SDS011;7275;50.328;8.720;2023-06-19T12:57:35;3.00;;;2.80;;
14381;SDS011;7275;50.328;8.720;2023-06-19T13:00:02;3.10;;;2.60;;
14381;SDS011;7275;50.328;8.720;2023-06-19T13:02:32;2.70;;;2.50;;
14381;SDS011;7275;50.328;8.720;2023-06-19T13:05:00;2.80;;;2.60;;
14381;SDS011;7275;50.328;8.720;2023-06-19T13:07:28;2.55;;;2.35;;
14381;SDS011;7275;50.328;8.720;2023-06-19T13:09:57;2.70;;;2.50;;
14381;SDS011;7275;50.328;8.720;2023-06-19T13:12:25;2.80;;;2.60;;
14381;SDS011;7275;50.328;8.720;2023-06-19T13:14:53;2.50;;;2.30;;
14381;SDS011;7275;50.328;8.720;2023-06-19T13:17:20;2.50;;;2.30;;
14381;SDS011;7275;50.328;8.720;2023-06-19T13:19:48;2.70;;;2.50;;
14381;SDS011;7275;50.328;8.720;2023-06-19T13:22:15;2.60;;;2.40;;
14381;SDS011;7275;50.328;8.720;2023-06-19T13:24:43;2.70;;;2.50;;
14381;SDS011;7275;50.328;8.720;2023-06-19T13:27:12;2.50;;;2.30;;
14381;SDS011;7275;50.328;8.720;2023-06-19T13:29:40;2.80;;;2.60;;
14381;SDS011;7275;50.328;8.720;2023-06-19T13:32:07;2.63;;;2.42;;
14381;SDS011;7275;50.328;8.720;2023-06-19T13:34:35;2.47;;;2.28;;
14381;SDS011;7275;50.328;8.720;2023-06-19T13:37:02;2.47;;;2.28;;
14381;SDS011;7275;50.328;8.720;2023-06-19T13:39:30;2.70;;;2.50;;
14381;SDS011;7275;50.328;8.720;2023-06-19T13:41:58;2.63;;;2.42;;
14381;SDS011;7275;50.328;8.720;2023-06-19T13:44:28;2.42;;;2.22;;
14381;SDS011;7275;50.328;8.720;2023-06-19T13:46:56;2.70;;;2.50;;
14381;SDS011;7275;50.328;8.720;2023-06-19T13:49:24;2.70;;;2.50;;
14381;SDS011;7275;50.328;8.720;2023-06-19T13:51:52;5.38;;;2.67;;
14381;SDS011;7275;50.328;8.720;2023-06-19T13:54:19;3.63;;;2.60;;
14381;SDS011;7275;50.328;8.720;2023-06-19T13:56:47;2.67;;;2.47;;
14381;SDS011;7275;50.328;8.720;2023-06-19T13:59:14;2.42;;;2.22;;
14381;SDS011;7275;50.328;8.720;2023-06-19T14:01:43;3.55;;;2.83;;
14381;SDS011;7275;50.328;8.720;2023-06-19T14:04:11;3.10;;;2.80;;
14381;SDS011;7275;50.328;8.720;2023-06-19T14:06:38;3.05;;;2.85;;
14381;SDS011;7275;50.328;8.720;2023-06-19T14:09:08;2.80;;;2.60;;
14381;SDS011;7275;50.328;8.720;2023-06-19T14:11:36;2.65;;;2.45;;
14381;SDS011;7275;50.328;8.720;2023-06-19T14:14:04;3.20;;;2.70;;
14381;SDS011;7275;50.328;8.720;2023-06-19T14:16:31;2.63;;;2.42;;
14381;SDS011;7275;50.328;8.720;2023-06-19T14:19:00;2.70;;;2.50;;
14381;SDS011;7275;50.328;8.720;2023-06-19T14:21:28;3.17;;;2.97;;
14381;SDS011;7275;50.328;8.720;2023-06-19T14:23:56;3.08;;;2.78;;
14381;SDS011;7275;50.328;8.720;2023-06-19T14:26:23;2.75;;;2.35;;
14381;SDS011;7275;50.328;8.720;2023-06-19T14:28:51;2.72;;;2.53;;
14381;SDS011;7275;50.328;8.720;2023-06-19T14:31:23;2.80;;;2.60;;
14381;SDS011;7275;50.328;8.720;2023-06-19T14:33:51;2.78;;;2.50;;
14381;SDS011;7275;50.328;8.720;2023-06-19T14:36:20;3.10;;;2.80;;
14381;SDS011;7275;50.328;8.720;2023-06-19T14:38:47;2.70;;;2.50;;
14381;SDS011;7275;50.328;8.720;2023-06-19T14:41:15;2.47;;;2.28;;
14381;SDS011;7275;50.328;8.720;2023-06-19T14:43:43;2.75;;;2.55;;
14381;SDS011;7275;50.328;8.720;2023-06-19T14:46:10;2.67;;;2.47;;
14381;SDS011;7275;50.328;8.720;2023-06-19T14:48:51;2.70;;;2.50;;
14381;SDS011;7275;50.328;8.720;2023-06-19T14:51:18;2.72;;;2.53;;
14381;SDS011;7275;50.328;8.720;2023-06-19T14:53:47;2.55;;;2.35;;
14381;SDS011;7275;50.328;8.720;2023-06-19T14:56:15;2.53;;;2.33;;
14381;SDS011;7275;50.328;8.720;2023-06-19T14:58:42;2.60;;;2.40;;
14381;SDS011;7275;50.328;8.720;2023-06-19T15:01:10;3.50;;;2.28;;
14381;SDS011;7275;50.328;8.720;2023-06-19T15:03:37;3.78;;;2.50;;
14381;SDS011;7275;50.328;8.720;2023-06-19T15:06:05;4.35;;;2.53;;
14381;SDS011;7275;50.328;8.720;2023-06-19T15:08:34;2.60;;;2.40;;
14381;SDS011;7275;50.328;8.720;2023-06-19T15:11:04;2.60;;;2.40;;